Time;durP1;ratioP1;P1;durP2;ratioP2;P2;SDS_P1;SDS_P2;PMS_P1;PMS_P2;Temp;Humidity;BMP_temperature;BMP_pressure;BME280_temperature;BME280_humidity;BME280_pressure;Samples;Min_cycle;Max_cycle;Signal;HPM_P1;HPM_P2
2021/12/14 00:00:48;;;;;;;13.53;9.27;;;;;;;7.59;95.67;99233.53;5063814;28;20648;-87
2021/12/14 00:03:18;;;;;;;13.70;9.17;;;;;;;7.59;97.12;99241.34;5065534;28;20989;-88
2021/12/14 00:05:47;;;;;;;13.03;9.43;;;;;;;7.61;95.72;99236.09;5061072;28;20687;-87
2021/12/14 00:08:16;;;;;;;14.73;9.20;;;;;;;7.58;95.70;99231.00;5064077;28;20638;-87
2021/12/14 00:11:08;;;;;;;12.40;8.90;;;;;;;7.54;96.34;99232.03;5060715;28;20633;-88
2021/12/14 00:13:50;;;;;;;13.73;9.73;;;;;;;7.54;96.01;99239.81;5061458;28;21106;-87
2021/12/14 00:16:19;;;;;;;14.17;9.40;;;;;;;7.53;96.25;99235.50;5064401;28;20635;-88
2021/12/14 00:18:47;;;;;;;14.37;9.20;;;;;;;7.51;95.87;99237.31;5061620;28;21198;-87
2021/12/14 00:21:21;;;;;;;12.87;8.63;;;;;;;7.50;96.53;99236.50;5048030;28;21235;-88
2021/12/14 00:24:07;;;;;;;15.97;11.10;;;;;;;7.46;96.24;99231.47;5059664;28;20629;-88
2021/12/14 00:26:41;;;;;;;13.30;9.50;;;;;;;7.48;95.99;99242.63;5057423;28;20642;-88
2021/12/14 00:29:14;;;;;;;15.00;9.73;;;;;;;7.49;97.07;99232.19;5065043;28;21221;-88
2021/12/14 00:31:42;;;;;;;14.07;9.03;;;;;;;7.52;96.84;99229.47;5045566;28;20623;-88
2021/12/14 00:34:11;;;;;;;15.23;9.60;;;;;;;7.54;96.34;99225.06;5058905;28;20628;-88
2021/12/14 00:36:39;;;;;;;14.30;10.37;;;;;;;7.54;95.62;99229.41;5063260;28;20625;-87
2021/12/14 00:39:09;;;;;;;13.83;9.63;;;;;;;7.53;96.16;99226.00;5047058;28;20727;-87
2021/12/14 00:41:40;;;;;;;16.30;10.33;;;;;;;7.56;95.31;99225.88;5064928;28;20650;-88
2021/12/14 00:44:09;;;;;;;14.97;9.87;;;;;;;7.56;96.99;99232.78;5061809;28;20651;-88
2021/12/14 00:46:40;;;;;;;14.83;9.63;;;;;;;7.56;95.98;99231.06;5076268;28;20683;-87
2021/12/14 00:49:11;;;;;;;15.97;10.50;;;;;;;7.56;95.47;99227.59;5059197;28;20650;-88
2021/12/14 00:51:39;;;;;;;16.20;10.10;;;;;;;7.57;96.10;99229.31;5045602;28;20637;-88
2021/12/14 00:54:11;;;;;;;16.77;10.50;;;;;;;7.57;96.96;99245.72;5063968;28;20680;-88
2021/12/14 00:56:47;;;;;;;16.70;9.90;;;;;;;7.57;95.43;99243.13;5063870;28;20635;-88
2021/12/14 00:59:19;;;;;;;15.10;10.17;;;;;;;7.61;95.35;99241.28;5046940;28;20731;-87
2021/12/14 01:01:53;;;;;;;17.50;10.67;;;;;;;7.63;95.62;99239.47;5056018;28;20619;-88
2021/12/14 01:04:25;;;;;;;20.20;11.30;;;;;;;7.61;95.46;99247.31;5062850;28;21242;-88
2021/12/14 01:06:55;;;;;;;17.00;10.70;;;;;;;7.61;96.51;99251.66;5060403;28;20696;-88
2021/12/14 01:09:27;;;;;;;17.33;10.93;;;;;;;7.61;96.58;99251.66;5047967;28;20632;-88
2021/12/14 01:12:02;;;;;;;19.90;12.37;;;;;;;7.64;96.39;99254.13;5063795;28;21137;-88
2021/12/14 01:14:40;;;;;;;16.10;10.33;;;;;;;7.65;95.76;99253.22;5063007;28;20627;-87
2021/12/14 01:17:26;;;;;;;19.30;10.90;;;;;;;7.67;94.92;99261.81;5059108;28;20627;-88
2021/12/14 01:19:59;;;;;;;16.17;10.47;;;;;;;7.68;95.37;99258.28;5073444;28;20632;-88
2021/12/14 01:22:41;;;;;;;18.43;10.63;;;;;;;7.69;95.47;99258.22;5041268;28;21274;-89
2021/12/14 01:25:16;;;;;;;17.00;10.20;;;;;;;7.69;95.48;99260.81;5044991;28;20718;-87
2021/12/14 01:27:50;;;;;;;15.90;10.40;;;;;;;7.64;95.53;99267.13;5088803;28;20727;-88
2021/12/14 01:30:25;;;;;;;14.57;9.13;;;;;;;7.63;95.97;99275.78;5061781;28;20727;-88
2021/12/14 01:32:55;;;;;;;16.97;9.80;;;;;;;7.63;95.54;99270.59;5059803;28;20636;-88
2021/12/14 01:35:30;;;;;;;17.70;10.40;;;;;;;7.64;96.25;99269.72;5062450;28;21043;-88
2021/12/14 01:38:17;;;;;;;14.37;9.30;;;;;;;7.65;94.75;99273.97;5049362;28;20621;-87
2021/12/14 01:40:56;;;;;;;16.80;10.13;;;;;;;7.62;94.94;99268.91;5073726;28;20636;-88
2021/12/14 01:43:42;;;;;;;14.93;9.80;;;;;;;7.58;95.63;99272.53;5060636;28;20632;-88
2021/12/14 01:46:25;;;;;;;16.40;10.00;;;;;;;7.53;94.66;99272.72;5064045;28;20655;-88
2021/12/14 01:49:05;;;;;;;18.73;10.60;;;;;;;7.51;96.33;99271.06;5063394;28;20654;-88
2021/12/14 01:51:59;;;;;;;16.80;9.83;;;;;;;7.45;95.15;99276.47;5057892;28;21231;-87
2021/12/14 01:54:40;;;;;;;15.20;8.90;;;;;;;7.45;95.53;99275.66;5049862;28;21237;-87
2021/12/14 01:57:11;;;;;;;14.80;8.50;;;;;;;7.43;96.26;99264.44;5066513;28;20627;-88
2021/12/14 01:59:42;;;;;;;14.30;9.00;;;;;;;7.43;96.07;99262.72;5094604;28;20981;-87
2021/12/14 02:02:22;;;;;;;17.60;9.10;;;;;;;7.41;95.80;99259.31;5062114;28;20632;-88
2021/12/14 02:04:53;;;;;;;16.87;9.97;;;;;;;7.39;95.77;99260.31;5057381;28;21064;-88
2021/12/14 02:07:24;;;;;;;17.93;10.83;;;;;;;7.37;96.96;99267.31;5044995;28;20747;-88
2021/12/14 02:09:56;;;;;;;17.00;10.77;;;;;;;7.37;96.00;99267.31;5068001;28;21231;-88
2021/12/14 02:12:28;;;;;;;17.07;9.83;;;;;;;7.36;96.50;99276.81;5062884;28;20624;-88
2021/12/14 02:15:07;;;;;;;16.50;10.63;;;;;;;7.37;95.63;99273.34;5049815;28;20708;-88
2021/12/14 02:17:39;;;;;;;16.40;9.03;;;;;;;7.39;96.25;99271.50;5066833;28;20644;-88
2021/12/14 02:20:11;;;;;;;14.30;8.60;;;;;;;7.41;95.83;99266.28;5050905;28;21311;-88
2021/12/14 02:22:41;;;;;;;15.00;9.17;;;;;;;7.38;96.91;99259.47;5061212;28;20638;-88
2021/12/14 02:25:11;;;;;;;19.20;9.80;;;;;;;7.39;96.45;99257.72;5045909;28;20648;-89
2021/12/14 02:27:44;;;;;;;15.27;9.13;;;;;;;7.38;96.23;99253.41;5063678;28;21205;-87
2021/12/14 02:30:16;;;;;;;17.33;10.40;;;;;;;7.38;96.08;99254.28;5044815;28;21011;-88
2021/12/14 02:32:44;;;;;;;17.20;10.20;;;;;;;7.39;96.62;99249.91;5048347;28;20644;-88
2021/12/14 02:35:19;;;;;;;19.90;10.90;;;;;;;7.40;97.54;99259.41;5059676;28;20624;-88
2021/12/14 02:37:53;;;;;;;18.40;10.73;;;;;;;7.39;96.09;99255.94;5048890;28;20613;-88
2021/12/14 02:40:32;;;;;;;18.27;10.23;;;;;;;7.37;97.60;99252.56;5062363;28;20621;-88
2021/12/14 02:43:03;;;;;;;19.20;10.40;;;;;;;7.37;96.12;99249.16;5097059;28;20669;-88
2021/12/14 02:45:33;;;;;;;13.60;8.17;;;;;;;7.38;97.72;99251.69;5057925;28;21286;-88
2021/12/14 02:48:05;;;;;;;17.60;10.30;;;;;;;7.36;97.26;99248.28;5058237;28;21017;-88
2021/12/14 02:50:33;;;;;;;17.70;8.80;;;;;;;7.35;97.14;99244.00;5060422;28;20647;-89
2021/12/14 02:53:03;;;;;;;16.27;8.30;;;;;;;7.29;97.61;99236.44;5065251;28;20628;-88
2021/12/14 02:55:32;;;;;;;17.17;8.90;;;;;;;7.30;96.13;99245.91;5060225;28;20679;-88
2021/12/14 02:58:05;;;;;;;16.87;9.27;;;;;;;7.31;97.66;99245.00;5061537;28;20670;-88
2021/12/14 03:00:36;;;;;;;21.67;9.80;;;;;;;7.28;97.67;99246.88;5049917;28;20640;-87
2021/12/14 03:03:09;;;;;;;18.30;10.10;;;;;;;7.28;97.53;99242.53;5097277;28;20638;-87
2021/12/14 03:05:41;;;;;;;20.03;10.43;;;;;;;7.34;97.27;99241.47;5057067;28;20648;-88
2021/12/14 03:08:14;;;;;;;18.13;10.00;;;;;;;7.31;96.53;99234.63;5064791;28;22001;-88
2021/12/14 03:10:59;;;;;;;19.73;9.83;;;;;;;7.32;97.58;99248.44;5053496;28;20653;-88
2021/12/14 03:13:31;;;;;;;17.23;10.00;;;;;;;7.29;97.53;99249.41;5061867;28;20646;-88
2021/12/14 03:16:02;;;;;;;18.17;9.60;;;;;;;7.31;96.80;99242.41;5063501;28;20635;-87
2021/12/14 03:18:33;;;;;;;20.97;10.67;;;;;;;7.33;97.08;99244.97;5064352;28;21243;-88
2021/12/14 03:21:04;;;;;;;19.43;11.20;;;;;;;7.32;96.36;99243.25;5062010;28;21262;-89
2021/12/14 03:23:35;;;;;;;16.60;9.73;;;;;;;7.29;97.69;99243.38;5064018;28;20615;-88
2021/12/14 03:26:05;;;;;;;17.97;9.73;;;;;;;7.31;96.23;99244.19;5062522;28;21227;-88
2021/12/14 03:28:35;;;;;;;18.03;10.80;;;;;;;7.33;96.15;99240.59;5077745;28;20627;-88
2021/12/14 03:31:18;;;;;;;20.80;10.27;;;;;;;7.31;96.36;99239.81;5063941;28;20667;-88
2021/12/14 03:33:49;;;;;;;18.03;9.30;;;;;;;7.29;97.12;99238.19;5039892;28;20694;-88
2021/12/14 03:36:23;;;;;;;18.90;9.50;;;;;;;7.24;96.97;99235.75;5043481;28;20645;-87
2021/12/14 03:38:55;;;;;;;16.20;9.20;;;;;;;7.25;96.80;99255.63;5063092;28;21195;-88
2021/12/14 03:41:28;;;;;;;17.33;9.23;;;;;;;7.28;96.09;99255.50;5065012;28;20727;-87
2021/12/14 03:44:00;;;;;;;17.60;9.57;;;;;;;7.30;97.02;99252.84;5089440;28;20632;-87
2021/12/14 03:46:39;;;;;;;18.27;9.53;;;;;;;7.28;97.11;99255.50;5060443;28;20654;-88
2021/12/14 03:49:08;;;;;;;17.00;9.03;;;;;;;7.28;96.29;99249.47;5095962;28;20730;-88
2021/12/14 03:51:39;;;;;;;16.23;9.00;;;;;;;7.26;96.81;99254.72;5047779;28;21211;-88
2021/12/14 03:54:09;;;;;;;17.20;9.13;;;;;;;7.25;97.12;99257.38;5065563;28;21236;-88
2021/12/14 03:56:38;;;;;;;15.13;8.03;;;;;;;7.23;96.92;99246.19;5047069;28;20624;-88
2021/12/14 03:59:07;;;;;;;20.10;10.00;;;;;;;7.24;96.21;99260.84;5065724;28;21198;-88
2021/12/14 04:01:39;;;;;;;18.20;8.90;;;;;;;7.26;96.01;99256.44;5039430;28;20908;-88
2021/12/14 04:04:15;;;;;;;14.87;8.40;;;;;;;7.29;96.60;99264.13;5061450;28;20639;-87
2021/12/14 04:06:44;;;;;;;18.57;9.30;;;;;;;7.31;97.18;99265.78;5061466;28;20685;-89
2021/12/14 04:09:15;;;;;;;13.43;7.40;;;;;;;7.33;97.56;99266.56;5089655;28;20641;-88
2021/12/14 04:11:44;;;;;;;16.77;8.67;;;;;;;7.34;96.12;99260.47;5064420;28;23725;-87
2021/12/14 04:14:13;;;;;;;16.20;8.60;;;;;;;7.28;96.39;99263.28;5044833;28;21199;-88
2021/12/14 04:16:44;;;;;;;15.33;8.13;;;;;;;7.31;96.27;99270.13;5042364;28;21233;-88
2021/12/14 04:19:20;;;;;;;14.83;8.23;;;;;;;7.30;96.56;99271.84;5061391;28;20628;-89
2021/12/14 04:21:50;;;;;;;12.60;7.63;;;;;;;7.32;96.90;99257.09;5060537;28;20627;-88
2021/12/14 04:24:23;;;;;;;17.97;9.10;;;;;;;7.33;95.79;99250.97;5092696;28;20654;-88
2021/12/14 04:26:53;;;;;;;16.77;7.57;;;;;;;7.32;97.04;99253.63;5061124;28;20695;-88
2021/12/14 04:29:21;;;;;;;13.77;6.80;;;;;;;7.28;97.23;99242.53;5055587;28;20698;-87
2021/12/14 04:31:50;;;;;;;13.33;7.23;;;;;;;7.27;97.39;99240.00;5040724;28;20644;-88
2021/12/14 04:34:20;;;;;;;14.40;7.57;;;;;;;7.27;96.13;99240.81;5060563;28;20640;-88
2021/12/14 04:36:52;;;;;;;14.50;7.70;;;;;;;7.26;96.90;99231.38;5066175;28;21187;-88
2021/12/14 04:39:38;;;;;;;14.47;7.50;;;;;;;7.27;96.16;99227.03;5060599;28;20634;-88
2021/12/14 04:53:39;;;;;;;10.90;6.93;;;;;;;7.20;96.78;99203.06;5072784;28;20650;-88
2021/12/14 04:56:14;;;;;;;12.37;6.90;;;;;;;7.13;97.32;99204.19;5046297;28;20677;-87
2021/12/14 04:58:51;;;;;;;15.47;7.67;;;;;;;7.13;95.84;99208.53;5062868;28;20639;-88
2021/12/14 05:01:19;;;;;;;11.93;6.67;;;;;;;7.11;97.16;99208.59;5072664;28;20698;-88
2021/12/14 05:03:52;;;;;;;14.97;7.57;;;;;;;7.11;96.82;99206.00;5045281;28;21185;-88
2021/12/14 05:06:24;;;;;;;11.07;7.30;;;;;;;7.12;95.87;99209.44;5047890;28;20659;-88
2021/12/14 05:11:43;;;;;;;12.53;6.20;;;;;;;7.11;96.07;99208.59;5096213;28;20624;-88
2021/12/14 05:14:12;;;;;;;10.93;6.27;;;;;;;7.10;96.82;99206.88;5061998;28;20755;-88
2021/12/14 05:16:46;;;;;;;11.23;6.27;;;;;;;7.10;97.46;99201.72;5044971;28;20636;-88
2021/12/14 05:19:31;;;;;;;11.10;6.23;;;;;;;7.13;96.54;99208.53;5064443;28;20639;-89
2021/12/14 05:22:07;;;;;;;10.53;5.80;;;;;;;7.15;97.08;99215.34;5044509;28;20624;-88
2021/12/14 05:24:47;;;;;;;9.53;5.80;;;;;;;7.15;97.04;99206.72;5047025;28;20638;-88
2021/12/14 05:27:23;;;;;;;9.43;6.33;;;;;;;7.18;96.08;99207.44;5040526;28;20683;-88
2021/12/14 05:29:52;;;;;;;12.10;6.63;;;;;;;7.21;97.00;99207.34;5075699;28;20659;-88
2021/12/14 05:32:21;;;;;;;9.33;5.93;;;;;;;7.24;97.27;99209.81;5062672;28;20719;-88
2021/12/14 05:34:50;;;;;;;12.67;6.60;;;;;;;7.24;96.09;99212.41;5048311;28;20738;-88
2021/12/14 05:37:23;;;;;;;13.03;6.60;;;;;;;7.26;96.18;99212.34;5044495;28;20637;-87
2021/12/14 05:39:57;;;;;;;10.40;6.80;;;;;;;7.28;95.77;99205.38;5046873;28;20636;-88
2021/12/14 05:45:42;;;;;;;11.30;6.70;;;;;;;7.28;96.75;99184.63;5062994;28;20631;-88
2021/12/14 05:48:19;;;;;;;11.47;6.90;;;;;;;7.27;96.03;99193.31;5080337;28;21004;-88
2021/12/14 05:50:50;;;;;;;15.23;7.50;;;;;;;7.25;97.25;99203.72;5066447;28;20633;-88
2021/12/14 05:53:20;;;;;;;14.60;8.20;;;;;;;7.26;96.23;99215.81;5068468;28;20640;-88
2021/12/14 05:55:50;;;;;;;13.80;7.30;;;;;;;7.26;96.41;99210.63;5068898;28;20633;-88
2021/12/14 05:58:22;;;;;;;11.80;7.10;;;;;;;7.26;95.85;99204.56;5079167;28;21313;-88
2021/12/14 06:00:53;;;;;;;12.87;7.80;;;;;;;7.27;96.29;99212.28;5062161;28;20758;-88
2021/12/14 06:03:24;;;;;;;12.27;6.53;;;;;;;7.28;96.76;99200.19;5081166;28;20660;-88
2021/12/14 06:05:55;;;;;;;14.13;8.20;;;;;;;7.27;96.30;99203.69;5051230;28;20640;-87
2021/12/14 06:08:26;;;;;;;14.30;7.40;;;;;;;7.26;95.67;99204.56;5052529;28;20669;-88
2021/12/14 06:11:00;;;;;;;15.53;7.90;;;;;;;7.22;95.56;99210.78;5067201;28;21167;-88
2021/12/14 06:13:39;;;;;;;14.20;8.10;;;;;;;7.18;96.04;99204.84;5041697;28;20689;-88
2021/12/14 06:16:08;;;;;;;16.90;8.03;;;;;;;7.17;96.09;99210.97;5042714;28;20666;-88
2021/12/14 06:18:37;;;;;;;15.10;7.60;;;;;;;7.19;96.85;99206.56;5062494;28;20685;-88
2021/12/14 06:21:19;;;;;;;16.63;8.17;;;;;;;7.21;95.71;99196.97;5048013;28;20655;-88
2021/12/14 06:23:47;;;;;;;14.73;8.00;;;;;;;7.21;96.90;99198.72;5050700;28;20690;-88
2021/12/14 06:26:33;;;;;;;17.60;8.00;;;;;;;7.19;96.07;99193.59;5051122;28;20661;-88
2021/12/14 06:29:08;;;;;;;14.97;8.60;;;;;;;7.17;95.78;99203.19;5065529;28;20762;-89
2021/12/14 06:31:36;;;;;;;15.70;8.23;;;;;;;7.19;95.89;99195.34;5077834;28;20636;-88
2021/12/14 06:34:20;;;;;;;14.33;7.63;;;;;;;7.18;96.83;99199.66;5048074;28;20636;-88
2021/12/14 06:37:29;;;;;;;14.10;7.47;;;;;;;7.16;95.63;99192.88;5050044;28;20631;-90
2021/12/14 06:40:02;;;;;;;20.43;8.97;;;;;;;7.14;96.90;99198.09;5049749;28;21246;-88
2021/12/14 06:42:32;;;;;;;16.37;7.87;;;;;;;7.12;96.74;99192.09;5068452;28;20643;-89
2021/12/14 06:45:08;;;;;;;16.97;8.87;;;;;;;7.10;96.40;99190.50;5063636;28;20642;-90
2021/12/14 06:48:30;;;;;;;14.23;6.97;;;;;;;7.09;96.03;99193.97;5082820;28;20627;-89
2021/12/14 06:51:01;;;;;;;17.60;7.97;;;;;;;7.03;95.53;99195.03;5095753;27;20643;-89
2021/12/14 06:53:48;;;;;;;12.17;7.20;;;;;;;7.03;96.58;99189.84;5068648;28;20734;-92
2021/12/14 06:56:49;;;;;;;12.27;6.90;;;;;;;6.99;95.95;99191.78;5065689;28;20635;-91
2021/12/14 06:59:50;;;;;;;15.87;7.53;;;;;;;7.00;96.20;99183.09;5044864;28;20727;-92
2021/12/14 07:02:46;;;;;;;12.80;6.80;;;;;;;6.97;95.63;99167.66;5046321;28;20643;-92
2021/12/14 07:05:33;;;;;;;16.03;7.67;;;;;;;6.96;96.48;99160.78;5062476;28;20996;-87
2021/12/14 07:08:09;;;;;;;18.30;8.00;;;;;;;6.98;96.63;99169.38;5092717;27;20663;-87
2021/12/14 07:10:38;;;;;;;15.47;7.77;;;;;;;6.97;95.91;99167.66;5057959;28;20640;-86
2021/12/14 07:13:15;;;;;;;13.83;8.03;;;;;;;6.96;97.16;99158.19;5061855;28;20635;-87
2021/12/14 07:15:44;;;;;;;15.13;7.40;;;;;;;6.98;96.65;99146.03;5064141;28;20639;-87
2021/12/14 07:18:13;;;;;;;16.17;8.43;;;;;;;6.97;96.10;99149.50;5060298;28;20632;-87
2021/12/14 07:20:44;;;;;;;18.80;9.00;;;;;;;6.99;97.10;99156.34;5065976;28;20634;-89
2021/12/14 07:23:27;;;;;;;17.23;8.50;;;;;;;6.97;96.70;99157.28;5077982;28;20667;-88
2021/12/14 07:26:00;;;;;;;24.23;9.57;;;;;;;6.98;96.23;99144.28;5048867;28;20716;-90
2021/12/14 07:28:36;;;;;;;16.87;8.17;;;;;;;7.02;97.06;99139.81;5072089;28;20683;-89
2021/12/14 07:31:12;;;;;;;17.40;8.90;;;;;;;6.99;95.38;99145.09;5053485;28;20636;-87
2021/12/14 07:33:46;;;;;;;14.40;8.10;;;;;;;6.96;96.24;99148.69;5069292;28;21168;-87
2021/12/14 07:36:20;;;;;;;15.70;8.57;;;;;;;7.01;95.24;99161.47;5045063;28;21267;-87
2021/12/14 07:38:50;;;;;;;17.47;9.30;;;;;;;7.04;96.04;99178.59;5073984;28;20767;-87
2021/12/14 07:41:25;;;;;;;18.60;9.80;;;;;;;7.04;96.36;99196.75;5064158;28;20625;-88
2021/12/14 07:43:57;;;;;;;17.70;9.10;;;;;;;7.06;96.76;99194.94;5060249;28;20637;-88
2021/12/14 07:46:34;;;;;;;14.40;8.30;;;;;;;7.10;96.55;99193.94;5047093;28;20631;-89
2021/12/14 07:49:07;;;;;;;18.20;9.40;;;;;;;7.16;95.81;99196.28;5039571;28;20713;-88
2021/12/14 07:51:37;;;;;;;14.83;7.83;;;;;;;7.19;96.52;99198.78;5043935;28;20759;-91
2021/12/14 07:54:08;;;;;;;18.20;9.60;;;;;;;7.22;95.37;99180.50;5058877;28;20645;-90
2021/12/14 07:56:40;;;;;;;16.03;8.83;;;;;;;7.25;95.79;99180.38;5063327;28;20635;-91
2021/12/14 07:59:21;;;;;;;17.00;8.60;;;;;;;7.25;96.38;99192.53;5063821;28;20636;-91
2021/12/14 08:01:52;;;;;;;15.00;8.40;;;;;;;7.27;95.20;99186.34;5061741;28;20663;-90
2021/12/14 08:04:21;;;;;;;17.50;8.47;;;;;;;7.27;95.94;99185.50;5079159;28;21013;-90
2021/12/14 08:06:53;;;;;;;14.83;8.47;;;;;;;7.29;95.48;99181.97;5077744;28;20758;-90
2021/12/14 08:09:45;;;;;;;14.20;7.37;;;;;;;7.30;95.97;99190.59;5050883;28;21236;-90
2021/12/14 08:12:28;;;;;;;14.87;8.20;;;;;;;7.29;95.77;99197.53;5066824;28;20640;-89
2021/12/14 08:15:02;;;;;;;15.73;8.87;;;;;;;7.31;95.78;99210.44;5061867;28;20631;-89
2021/12/14 08:17:31;;;;;;;16.67;9.13;;;;;;;7.30;95.65;99219.97;5050947;28;20620;-88
2021/12/14 08:20:00;;;;;;;15.80;9.37;;;;;;;7.26;94.63;99228.78;5064450;28;20628;-89
2021/12/14 08:22:49;;;;;;;16.77;8.80;;;;;;;7.28;95.01;99218.34;5048498;28;21215;-89
2021/12/14 08:25:24;;;;;;;16.63;9.03;;;;;;;7.29;95.89;99214.84;5062849;28;20640;-89
2021/12/14 08:28:00;;;;;;;18.50;8.70;;;;;;;7.32;95.38;99236.34;5075996;28;21283;-89
2021/12/14 08:30:29;;;;;;;17.50;9.60;;;;;;;7.38;94.64;99237.84;5044674;28;20635;-90
2021/12/14 08:32:58;;;;;;;19.93;9.80;;;;;;;7.44;94.04;99246.22;5062646;28;20979;-89
2021/12/14 08:35:28;;;;;;;17.20;9.20;;;;;;;7.49;94.06;99242.56;5063383;28;20726;-87
2021/12/14 08:38:00;;;;;;;16.30;9.13;;;;;;;7.50;93.72;99230.44;5060442;28;20757;-86
2021/12/14 08:40:31;;;;;;;16.77;10.23;;;;;;;7.54;94.43;99245.00;5059337;28;20647;-89
2021/12/14 08:43:06;;;;;;;20.57;9.87;;;;;;;7.52;93.43;99236.44;5046355;28;21473;-88
2021/12/14 08:45:39;;;;;;;21.20;10.90;;;;;;;7.47;95.23;99242.69;5044781;28;20662;-89
2021/12/14 08:48:10;;;;;;;24.10;11.80;;;;;;;7.50;94.10;99248.59;5060068;28;21180;-88
2021/12/14 08:50:42;;;;;;;22.03;11.90;;;;;;;7.53;95.68;99233.78;5049727;28;20639;-88
2021/12/14 08:53:13;;;;;;;19.47;11.23;;;;;;;7.56;95.79;99233.66;5061390;28;20649;-87
2021/12/14 08:55:45;;;;;;;21.23;10.20;;;;;;;7.59;95.07;99225.75;5061492;28;20675;-88
2021/12/14 08:58:14;;;;;;;18.00;9.50;;;;;;;7.60;94.32;99208.44;5046593;28;21195;-88
2021/12/14 09:00:45;;;;;;;17.73;8.57;;;;;;;7.58;95.35;99215.44;5047904;28;20639;-88
2021/12/14 09:03:20;;;;;;;20.93;9.80;;;;;;;7.61;93.97;99249.06;5074335;28;20731;-88
2021/12/14 09:05:50;;;;;;;17.53;9.17;;;;;;;7.66;93.69;99228.94;5046756;28;21203;-89
2021/12/14 09:08:20;;;;;;;19.00;11.50;;;;;;;7.71;94.10;99214.03;5076553;28;20650;-88
2021/12/14 09:10:51;;;;;;;17.30;9.50;;;;;;;7.72;93.87;99229.56;5046755;28;20638;-89
2021/12/14 09:13:19;;;;;;;16.20;9.87;;;;;;;7.73;94.17;99220.03;5059386;28;21258;-88
2021/12/14 09:15:50;;;;;;;19.10;10.00;;;;;;;7.74;93.65;99211.31;5062563;28;20638;-88
2021/12/14 09:18:20;;;;;;;17.10;9.37;;;;;;;7.75;93.72;99223.41;5046247;28;20732;-88
2021/12/14 09:20:54;;;;;;;15.83;8.70;;;;;;;7.77;93.08;99217.25;5060404;28;20639;-88
2021/12/14 09:23:26;;;;;;;22.87;9.50;;;;;;;7.80;93.91;99211.09;5053640;28;20644;-89
2021/12/14 09:25:55;;;;;;;24.13;10.90;;;;;;;7.82;93.90;99204.06;5054123;28;21231;-88
2021/12/14 09:28:23;;;;;;;15.73;8.90;;;;;;;7.86;93.32;99226.41;5049726;28;20626;-89
2021/12/14 09:30:56;;;;;;;17.73;10.10;;;;;;;7.88;93.13;99229.78;5045378;28;20652;-89
2021/12/14 09:33:26;;;;;;;16.17;8.83;;;;;;;7.95;94.39;99233.84;5060358;28;20647;-88
2021/12/14 09:35:57;;;;;;;16.37;9.50;;;;;;;7.97;93.86;99235.50;5061357;28;21188;-89
2021/12/14 09:38:32;;;;;;;17.00;9.30;;;;;;;8.00;93.48;99232.78;5077602;28;20719;-89
2021/12/14 09:41:03;;;;;;;23.33;13.17;;;;;;;8.01;93.50;99229.25;5060767;28;20631;-88
2021/12/14 09:43:34;;;;;;;16.87;9.90;;;;;;;8.04;93.95;99226.53;5064126;28;20734;-89
2021/12/14 09:46:07;;;;;;;15.53;9.70;;;;;;;8.03;93.85;99223.09;5058148;28;20635;-88
2021/12/14 09:48:40;;;;;;;18.10;10.83;;;;;;;8.03;92.57;99220.50;5063844;28;20623;-88
2021/12/14 09:51:14;;;;;;;16.63;9.43;;;;;;;8.07;93.12;99216.00;5049060;28;21219;-89
2021/12/14 09:53:48;;;;;;;15.70;9.47;;;;;;;8.07;92.87;99216.00;5048715;28;21201;-89
2021/12/14 09:56:20;;;;;;;20.27;10.07;;;;;;;8.11;92.69;99227.97;5057666;28;21208;-89
2021/12/14 09:58:51;;;;;;;16.80;9.17;;;;;;;8.15;93.57;99229.59;5080475;28;20639;-89
2021/12/14 10:01:27;;;;;;;18.73;9.30;;;;;;;8.18;92.93;99234.66;5044505;28;20691;-89
2021/12/14 10:03:58;;;;;;;18.87;10.00;;;;;;;8.19;93.12;99226.78;5037757;28;20636;-88
2021/12/14 10:06:31;;;;;;;17.83;9.63;;;;;;;8.16;92.32;99224.34;5046688;28;20663;-89
2021/12/14 10:09:05;;;;;;;16.80;10.10;;;;;;;8.15;92.67;99222.63;5061971;28;21003;-88
2021/12/14 10:11:42;;;;;;;17.53;10.00;;;;;;;8.17;92.59;99223.41;5058652;28;21119;-89
2021/12/14 10:14:12;;;;;;;30.20;15.87;;;;;;;8.20;93.42;99217.25;5077017;28;20643;-89
2021/12/14 10:16:40;;;;;;;17.93;10.87;;;;;;;8.15;91.82;99220.03;5046900;28;20652;-89
2021/12/14 10:19:12;;;;;;;19.80;11.13;;;;;;;8.16;92.59;99221.75;5062496;28;20627;-88
2021/12/14 10:21:45;;;;;;;17.90;10.33;;;;;;;8.17;92.15;99212.19;5043061;28;20936;-89
2021/12/14 10:24:13;;;;;;;19.67;11.33;;;;;;;8.15;92.50;99204.44;5046466;28;20627;-88
2021/12/14 10:26:45;;;;;;;18.67;10.87;;;;;;;8.20;92.30;99206.88;5066149;28;20655;-89
2021/12/14 10:29:13;;;;;;;16.70;10.10;;;;;;;8.20;91.96;99212.06;5051030;28;21230;-88
2021/12/14 10:31:44;;;;;;;17.70;9.93;;;;;;;8.23;91.74;99212.78;5063207;28;20633;-88
2021/12/14 10:34:17;;;;;;;15.90;10.00;;;;;;;8.26;91.78;99217.84;5053943;28;20974;-88
2021/12/14 10:36:51;;;;;;;16.70;10.30;;;;;;;8.26;92.34;99217.84;5045688;28;20685;-89
2021/12/14 10:39:36;;;;;;;15.43;10.20;;;;;;;8.25;93.11;99221.34;5082525;28;21054;-88
2021/12/14 10:45:10;;;;;;;16.97;10.30;;;;;;;8.24;92.59;99217.06;4990851;28;20639;-88
2021/12/14 10:47:39;;;;;;;16.67;10.27;;;;;;;8.24;91.76;99218.81;5048286;28;20629;-89
2021/12/14 10:50:10;;;;;;;18.70;10.93;;;;;;;8.23;92.15;99223.16;5050277;28;20687;-88
2021/12/14 10:52:43;;;;;;;20.23;11.73;;;;;;;8.29;91.74;99220.31;5049461;28;20735;-90
2021/12/14 10:55:15;;;;;;;16.80;10.30;;;;;;;8.34;92.28;99227.91;5060215;28;20631;-87
2021/12/14 10:57:44;;;;;;;15.63;10.47;;;;;;;8.35;92.08;99229.63;5067170;28;20671;-86
2021/12/14 11:00:31;;;;;;;17.63;10.30;;;;;;;8.36;92.53;99219.16;5046215;28;21188;-86
2021/12/14 11:03:03;;;;;;;17.43;10.57;;;;;;;8.42;92.38;99223.25;5063178;28;21103;-87
2021/12/14 11:05:33;;;;;;;17.73;11.50;;;;;;;8.45;92.22;99221.38;5064806;28;20635;-87
2021/12/14 11:08:04;;;;;;;17.70;10.77;;;;;;;8.44;92.73;99227.47;5059581;28;20672;-85
2021/12/14 11:10:37;;;;;;;19.13;11.50;;;;;;;8.44;91.48;99228.31;5067950;28;20919;-87
2021/12/14 11:13:09;;;;;;;19.93;12.50;;;;;;;8.43;92.44;99220.56;5065631;28;20652;-87
2021/12/14 11:15:42;;;;;;;21.07;12.20;;;;;;;8.41;91.48;99219.81;5042248;28;20681;-87
2021/12/14 11:18:16;;;;;;;22.30;13.10;;;;;;;8.38;90.67;99219.94;5059622;28;20727;-87
2021/12/14 11:20:48;;;;;;;21.07;12.10;;;;;;;8.38;92.61;99214.72;5062651;28;21005;-87
2021/12/14 11:23:21;;;;;;;18.73;11.20;;;;;;;8.39;91.59;99207.78;5049719;28;20731;-87
2021/12/14 11:26:03;;;;;;;21.67;13.07;;;;;;;8.40;91.76;99217.28;5069365;28;20624;-87
2021/12/14 11:28:34;;;;;;;21.27;12.20;;;;;;;8.37;91.25;99223.44;5062875;28;20731;-87
2021/12/14 11:31:06;;;;;;;18.63;11.47;;;;;;;8.33;91.48;99223.63;5060403;28;21211;-87
2021/12/14 11:33:36;;;;;;;18.20;11.37;;;;;;;8.29;92.68;99222.91;5053615;28;20676;-87
2021/12/14 11:36:10;;;;;;;27.93;14.37;;;;;;;8.33;92.86;99224.50;5078171;28;20632;-87
2021/12/14 11:38:44;;;;;;;20.50;12.63;;;;;;;8.40;91.68;99225.06;5101486;28;20658;-87
2021/12/14 11:41:41;;;;;;;17.13;11.70;;;;;;;8.45;92.63;99217.00;5063192;28;20707;-87
2021/12/14 11:44:15;;;;;;;20.40;12.07;;;;;;;8.50;93.51;99216.81;5047572;28;20637;-87
2021/12/14 11:47:05;;;;;;;18.30;12.17;;;;;;;8.49;93.29;99199.53;5050167;28;20622;-87
2021/12/14 11:49:45;;;;;;;20.70;11.70;;;;;;;8.50;93.69;99201.22;5049951;28;21207;-87
2021/12/14 11:52:15;;;;;;;19.37;11.20;;;;;;;8.56;93.02;99191.41;5063159;28;20627;-87
2021/12/14 11:54:47;;;;;;;17.90;11.37;;;;;;;8.56;92.61;99191.41;5067677;28;20966;-87
2021/12/14 11:57:17;;;;;;;18.00;11.43;;;;;;;8.60;92.84;99186.91;5060893;28;20806;-87
2021/12/14 11:59:45;;;;;;;19.73;13.70;;;;;;;8.59;93.47;99172.25;5065848;28;20637;-87
2021/12/14 12:02:13;;;;;;;20.20;12.60;;;;;;;8.63;93.36;99173.78;5056926;28;21448;-87
2021/12/14 12:04:46;;;;;;;19.17;11.60;;;;;;;8.63;92.79;99177.25;5047165;28;20634;-87
2021/12/14 12:10:07;;;;;;;20.43;12.77;;;;;;;8.61;92.58;99186.00;5060540;28;20643;-87
2021/12/14 12:12:38;;;;;;;19.17;12.53;;;;;;;8.63;92.20;99191.97;5039056;28;20655;-87
2021/12/14 12:15:09;;;;;;;20.93;13.60;;;;;;;8.67;92.71;99194.38;5050729;28;20707;-86
2021/12/14 12:17:40;;;;;;;19.33;12.53;;;;;;;8.72;92.54;99186.38;5045105;28;20630;-87
2021/12/14 12:20:14;;;;;;;25.53;14.47;;;;;;;8.77;92.06;99189.66;5062787;28;20636;-87
2021/12/14 12:22:45;;;;;;;23.00;15.47;;;;;;;8.79;91.59;99193.00;5066003;28;21002;-87